sensor_id;sensor_type;location;lat;lon;timestamp;temperature;humidity
65179;DHT22;51849;47.476;8.084;2022-09-17T00:01:26;11.00;72.90
65179;DHT22;51849;47.476;8.084;2022-09-17T00:03:54;11.00;72.90
65179;DHT22;51849;47.476;8.084;2022-09-17T00:06:28;11.10;72.40
65179;DHT22;51849;47.476;8.084;2022-09-17T00:08:57;11.10;72.40
65179;DHT22;51849;47.476;8.084;2022-09-17T00:11:28;11.10;73.20
65179;DHT22;51849;47.476;8.084;2022-09-17T00:13:57;11.10;73.10
65179;DHT22;51849;47.476;8.084;2022-09-17T00:19:00;11.00;72.50
65179;DHT22;51849;47.476;8.084;2022-09-17T00:21:30;11.00;73.40
65179;DHT22;51849;47.476;8.084;2022-09-17T00:24:02;11.00;73.60
65179;DHT22;51849;47.476;8.084;2022-09-17T00:26:30;10.90;74.00
65179;DHT22;51849;47.476;8.084;2022-09-17T00:28:57;10.90;74.60
65179;DHT22;51849;47.476;8.084;2022-09-17T00:31:24;10.90;74.80
65179;DHT22;51849;47.476;8.084;2022-09-17T00:33:51;10.90;74.80
65179;DHT22;51849;47.476;8.084;2022-09-17T00:36:17;10.90;75.00
65179;DHT22;51849;47.476;8.084;2022-09-17T00:38:51;11.00;75.00
65179;DHT22;51849;47.476;8.084;2022-09-17T00:41:18;11.00;74.90
65179;DHT22;51849;47.476;8.084;2022-09-17T00:43:49;11.00;74.60
65179;DHT22;51849;47.476;8.084;2022-09-17T00:46:41;10.90;74.50
65179;DHT22;51849;47.476;8.084;2022-09-17T00:49:21;11.00;74.90
65179;DHT22;51849;47.476;8.084;2022-09-17T00:51:52;10.90;74.90
65179;DHT22;51849;47.476;8.084;2022-09-17T00:54:24;10.90;75.20
65179;DHT22;51849;47.476;8.084;2022-09-17T00:56:51;10.90;75.20
65179;DHT22;51849;47.476;8.084;2022-09-17T00:59:17;11.00;75.00
65179;DHT22;51849;47.476;8.084;2022-09-17T01:01:49;11.00;74.80
65179;DHT22;51849;47.476;8.084;2022-09-17T01:04:20;11.00;74.60
65179;DHT22;51849;47.476;8.084;2022-09-17T01:09:56;10.90;74.80
65179;DHT22;51849;47.476;8.084;2022-09-17T01:12:41;10.90;74.60
65179;DHT22;51849;47.476;8.084;2022-09-17T01:29:51;10.70;75.10
65179;DHT22;51849;47.476;8.084;2022-09-17T01:32:35;10.70;75.10
65179;DHT22;51849;47.476;8.084;2022-09-17T01:40:40;10.70;75.80
65179;DHT22;51849;47.476;8.084;2022-09-17T01:43:33;10.70;75.90
65179;DHT22;51849;47.476;8.084;2022-09-17T01:46:21;10.80;76.10
65179;DHT22;51849;47.476;8.084;2022-09-17T01:48:57;10.80;76.30
65179;DHT22;51849;47.476;8.084;2022-09-17T01:51:34;10.80;76.30
65179;DHT22;51849;47.476;8.084;2022-09-17T01:54:12;10.80;76.60
65179;DHT22;51849;47.476;8.084;2022-09-17T01:56:39;10.80;76.70
65179;DHT22;51849;47.476;8.084;2022-09-17T01:59:16;10.80;77.00
65179;DHT22;51849;47.476;8.084;2022-09-17T02:01:50;10.70;77.50
65179;DHT22;51849;47.476;8.084;2022-09-17T02:04:30;10.70;77.50
65179;DHT22;51849;47.476;8.084;2022-09-17T02:07:07;10.70;77.30
65179;DHT22;51849;47.476;8.084;2022-09-17T02:09:42;10.70;77.10
65179;DHT22;51849;47.476;8.084;2022-09-17T02:12:23;10.70;77.10
65179;DHT22;51849;47.476;8.084;2022-09-17T02:14:57;10.70;77.20
65179;DHT22;51849;47.476;8.084;2022-09-17T02:17:38;10.60;77.40
65179;DHT22;51849;47.476;8.084;2022-09-17T02:20:09;10.60;77.40
65179;DHT22;51849;47.476;8.084;2022-09-17T02:22:43;10.60;76.70
65179;DHT22;51849;47.476;8.084;2022-09-17T02:25:19;10.60;76.70
65179;DHT22;51849;47.476;8.084;2022-09-17T02:28:02;10.60;76.50
65179;DHT22;51849;47.476;8.084;2022-09-17T02:30:35;10.50;76.60
65179;DHT22;51849;47.476;8.084;2022-09-17T02:33:01;10.40;76.90
65179;DHT22;51849;47.476;8.084;2022-09-17T02:35:34;10.20;76.90
65179;DHT22;51849;47.476;8.084;2022-09-17T02:38:00;10.00;77.60
65179;DHT22;51849;47.476;8.084;2022-09-17T02:40:28;10.00;77.80
65179;DHT22;51849;47.476;8.084;2022-09-17T02:46:26;10.00;77.60
65179;DHT22;51849;47.476;8.084;2022-09-17T02:57:29;9.90;76.80
65179;DHT22;51849;47.476;8.084;2022-09-17T03:00:14;9.90;76.80
65179;DHT22;51849;47.476;8.084;2022-09-17T03:05:22;9.80;76.70
65179;DHT22;51849;47.476;8.084;2022-09-17T03:07:50;9.70;77.00
65179;DHT22;51849;47.476;8.084;2022-09-17T03:10:18;9.70;76.80
65179;DHT22;51849;47.476;8.084;2022-09-17T03:12:47;9.60;76.60
65179;DHT22;51849;47.476;8.084;2022-09-17T03:15:13;9.60;76.60
65179;DHT22;51849;47.476;8.084;2022-09-17T03:17:39;9.60;76.70
65179;DHT22;51849;47.476;8.084;2022-09-17T03:20:05;9.60;76.80
65179;DHT22;51849;47.476;8.084;2022-09-17T03:22:35;9.60;76.70
65179;DHT22;51849;47.476;8.084;2022-09-17T03:25:01;9.70;76.70
65179;DHT22;51849;47.476;8.084;2022-09-17T03:27:28;9.60;76.50
65179;DHT22;51849;47.476;8.084;2022-09-17T03:29:54;9.60;76.30
65179;DHT22;51849;47.476;8.084;2022-09-17T03:32:19;9.60;76.20
65179;DHT22;51849;47.476;8.084;2022-09-17T03:34:48;9.70;76.40
65179;DHT22;51849;47.476;8.084;2022-09-17T03:37:16;9.50;76.50
65179;DHT22;51849;47.476;8.084;2022-09-17T03:39:41;9.50;76.70
65179;DHT22;51849;47.476;8.084;2022-09-17T03:42:07;9.40;76.80
65179;DHT22;51849;47.476;8.084;2022-09-17T03:44:33;9.40;77.10
65179;DHT22;51849;47.476;8.084;2022-09-17T03:46:59;9.40;77.10
65179;DHT22;51849;47.476;8.084;2022-09-17T03:49:24;9.40;77.40
65179;DHT22;51849;47.476;8.084;2022-09-17T03:51:50;9.40;77.40
65179;DHT22;51849;47.476;8.084;2022-09-17T03:54:16;9.30;77.70
65179;DHT22;51849;47.476;8.084;2022-09-17T03:56:44;9.30;77.80
65179;DHT22;51849;47.476;8.084;2022-09-17T03:59:10;9.30;77.40
65179;DHT22;51849;47.476;8.084;2022-09-17T04:01:36;9.30;77.40
65179;DHT22;51849;47.476;8.084;2022-09-17T04:04:03;9.30;76.90
65179;DHT22;51849;47.476;8.084;2022-09-17T04:06:29;9.20;77.10
65179;DHT22;51849;47.476;8.084;2022-09-17T04:08:55;9.20;77.20
65179;DHT22;51849;47.476;8.084;2022-09-17T04:11:22;9.10;77.50
65179;DHT22;51849;47.476;8.084;2022-09-17T04:13:48;9.10;77.70
65179;DHT22;51849;47.476;8.084;2022-09-17T04:16:13;9.10;77.60
65179;DHT22;51849;47.476;8.084;2022-09-17T04:18:41;9.20;77.20
65179;DHT22;51849;47.476;8.084;2022-09-17T04:21:07;9.10;77.10
65179;DHT22;51849;47.476;8.084;2022-09-17T04:23:35;9.10;77.20
65179;DHT22;51849;47.476;8.084;2022-09-17T04:26:01;9.00;77.50
65179;DHT22;51849;47.476;8.084;2022-09-17T04:28:28;9.00;77.80
65179;DHT22;51849;47.476;8.084;2022-09-17T04:30:54;9.00;78.00
65179;DHT22;51849;47.476;8.084;2022-09-17T04:33:20;8.90;78.20
65179;DHT22;51849;47.476;8.084;2022-09-17T04:35:45;8.90;77.90
65179;DHT22;51849;47.476;8.084;2022-09-17T04:38:14;8.90;78.00
65179;DHT22;51849;47.476;8.084;2022-09-17T04:40:45;8.80;78.10
65179;DHT22;51849;47.476;8.084;2022-09-17T04:43:11;8.80;78.30
65179;DHT22;51849;47.476;8.084;2022-09-17T04:45:37;8.80;78.10
65179;DHT22;51849;47.476;8.084;2022-09-17T04:48:03;8.80;77.80
65179;DHT22;51849;47.476;8.084;2022-09-17T04:50:29;8.80;77.50
65179;DHT22;51849;47.476;8.084;2022-09-17T04:52:59;8.80;77.30
65179;DHT22;51849;47.476;8.084;2022-09-17T04:55:28;8.90;77.20
65179;DHT22;51849;47.476;8.084;2022-09-17T04:57:55;8.70;77.40
65179;DHT22;51849;47.476;8.084;2022-09-17T05:00:23;8.80;77.30
65179;DHT22;51849;47.476;8.084;2022-09-17T05:02:55;8.80;77.10
65179;DHT22;51849;47.476;8.084;2022-09-17T05:05:21;8.80;77.20
65179;DHT22;51849;47.476;8.084;2022-09-17T05:07:50;8.80;77.50
65179;DHT22;51849;47.476;8.084;2022-09-17T05:10:16;8.70;77.70
65179;DHT22;51849;47.476;8.084;2022-09-17T05:12:50;8.70;77.90
65179;DHT22;51849;47.476;8.084;2022-09-17T05:15:18;8.60;78.20
65179;DHT22;51849;47.476;8.084;2022-09-17T05:17:44;8.60;78.10
65179;DHT22;51849;47.476;8.084;2022-09-17T05:20:10;8.60;78.20
65179;DHT22;51849;47.476;8.084;2022-09-17T05:22:45;8.60;78.30
65179;DHT22;51849;47.476;8.084;2022-09-17T05:25:13;8.60;78.50
65179;DHT22;51849;47.476;8.084;2022-09-17T05:27:41;8.60;78.80
65179;DHT22;51849;47.476;8.084;2022-09-17T05:30:15;8.60;78.70
65179;DHT22;51849;47.476;8.084;2022-09-17T05:32:44;8.60;78.60
65179;DHT22;51849;47.476;8.084;2022-09-17T05:35:10;8.60;78.80
65179;DHT22;51849;47.476;8.084;2022-09-17T05:37:36;8.60;78.70
65179;DHT22;51849;47.476;8.084;2022-09-17T05:40:03;8.60;78.90
65179;DHT22;51849;47.476;8.084;2022-09-17T05:42:31;8.70;79.30
65179;DHT22;51849;47.476;8.084;2022-09-17T05:45:01;8.70;79.30
65179;DHT22;51849;47.476;8.084;2022-09-17T05:47:27;8.70;79.10
65179;DHT22;51849;47.476;8.084;2022-09-17T05:49:53;8.70;79.50
65179;DHT22;51849;47.476;8.084;2022-09-17T05:52:20;8.80;79.40
65179;DHT22;51849;47.476;8.084;2022-09-17T05:54:46;8.80;79.20
65179;DHT22;51849;47.476;8.084;2022-09-17T05:57:13;8.90;79.20
65179;DHT22;51849;47.476;8.084;2022-09-17T05:59:42;9.00;79.30
65179;DHT22;51849;47.476;8.084;2022-09-17T06:02:11;9.00;79.40
65179;DHT22;51849;47.476;8.084;2022-09-17T06:04:40;9.10;79.30
65179;DHT22;51849;47.476;8.084;2022-09-17T06:07:06;9.10;79.50
65179;DHT22;51849;47.476;8.084;2022-09-17T06:09:36;9.20;79.70
65179;DHT22;51849;47.476;8.084;2022-09-17T06:12:02;9.20;79.90
65179;DHT22;51849;47.476;8.084;2022-09-17T06:14:29;9.20;79.90
65179;DHT22;51849;47.476;8.084;2022-09-17T06:16:58;9.30;80.20
65179;DHT22;51849;47.476;8.084;2022-09-17T06:19:24;9.30;80.90
65179;DHT22;51849;47.476;8.084;2022-09-17T06:21:52;9.30;81.30
65179;DHT22;51849;47.476;8.084;2022-09-17T06:24:20;9.30;82.00
65179;DHT22;51849;47.476;8.084;2022-09-17T06:26:46;9.30;80.80
65179;DHT22;51849;47.476;8.084;2022-09-17T06:29:11;9.30;81.10
65179;DHT22;51849;47.476;8.084;2022-09-17T06:31:42;9.40;79.60
65179;DHT22;51849;47.476;8.084;2022-09-17T06:34:09;9.30;78.50
65179;DHT22;51849;47.476;8.084;2022-09-17T06:36:36;9.30;77.80
65179;DHT22;51849;47.476;8.084;2022-09-17T06:39:02;9.20;78.40
65179;DHT22;51849;47.476;8.084;2022-09-17T06:41:28;9.20;79.00
65179;DHT22;51849;47.476;8.084;2022-09-17T06:43:54;9.30;79.10
65179;DHT22;51849;47.476;8.084;2022-09-17T06:46:21;9.30;78.50
65179;DHT22;51849;47.476;8.084;2022-09-17T06:48:48;9.30;78.80
65179;DHT22;51849;47.476;8.084;2022-09-17T06:51:18;9.40;78.20
65179;DHT22;51849;47.476;8.084;2022-09-17T06:53:45;9.40;78.20
65179;DHT22;51849;47.476;8.084;2022-09-17T06:56:15;9.50;79.40
65179;DHT22;51849;47.476;8.084;2022-09-17T06:58:43;9.70;78.10
65179;DHT22;51849;47.476;8.084;2022-09-17T07:01:12;9.70;77.90
65179;DHT22;51849;47.476;8.084;2022-09-17T07:03:38;9.70;77.60
65179;DHT22;51849;47.476;8.084;2022-09-17T07:06:10;9.70;77.90
65179;DHT22;51849;47.476;8.084;2022-09-17T07:08:37;9.70;78.30
65179;DHT22;51849;47.476;8.084;2022-09-17T07:11:04;9.80;78.30
65179;DHT22;51849;47.476;8.084;2022-09-17T07:13:32;9.80;78.20
65179;DHT22;51849;47.476;8.084;2022-09-17T07:16:00;9.90;76.90
65179;DHT22;51849;47.476;8.084;2022-09-17T07:18:30;10.10;77.30
65179;DHT22;51849;47.476;8.084;2022-09-17T07:20:57;10.20;77.30
65179;DHT22;51849;47.476;8.084;2022-09-17T07:23:25;10.40;76.70
65179;DHT22;51849;47.476;8.084;2022-09-17T07:25:56;10.60;74.80
65179;DHT22;51849;47.476;8.084;2022-09-17T07:28:24;10.60;74.40
65179;DHT22;51849;47.476;8.084;2022-09-17T07:30:51;10.60;73.80
65179;DHT22;51849;47.476;8.084;2022-09-17T07:33:18;10.70;73.80
65179;DHT22;51849;47.476;8.084;2022-09-17T07:35:56;10.70;73.40
65179;DHT22;51849;47.476;8.084;2022-09-17T07:38:25;10.60;72.30
65179;DHT22;51849;47.476;8.084;2022-09-17T07:40:56;10.50;71.70
65179;DHT22;51849;47.476;8.084;2022-09-17T07:43:30;10.30;72.70
65179;DHT22;51849;47.476;8.084;2022-09-17T07:45:57;10.30;73.60
65179;DHT22;51849;47.476;8.084;2022-09-17T07:48:28;10.40;73.00
65179;DHT22;51849;47.476;8.084;2022-09-17T07:50:54;10.50;72.80
65179;DHT22;51849;47.476;8.084;2022-09-17T07:53:24;10.60;72.10
65179;DHT22;51849;47.476;8.084;2022-09-17T07:55:53;10.60;71.10
65179;DHT22;51849;47.476;8.084;2022-09-17T07:58:21;10.50;71.70
65179;DHT22;51849;47.476;8.084;2022-09-17T08:00:48;10.60;72.30
65179;DHT22;51849;47.476;8.084;2022-09-17T08:03:14;10.60;70.50
65179;DHT22;51849;47.476;8.084;2022-09-17T08:05:42;10.60;70.00
65179;DHT22;51849;47.476;8.084;2022-09-17T08:08:10;10.70;70.70
65179;DHT22;51849;47.476;8.084;2022-09-17T08:10:37;11.00;69.40
65179;DHT22;51849;47.476;8.084;2022-09-17T08:13:03;11.20;68.90
65179;DHT22;51849;47.476;8.084;2022-09-17T08:15:30;11.40;68.20
65179;DHT22;51849;47.476;8.084;2022-09-17T08:17:57;11.50;67.00
65179;DHT22;51849;47.476;8.084;2022-09-17T08:20:23;11.60;66.60
65179;DHT22;51849;47.476;8.084;2022-09-17T08:22:56;11.90;67.10
65179;DHT22;51849;47.476;8.084;2022-09-17T08:25:23;12.00;65.70
65179;DHT22;51849;47.476;8.084;2022-09-17T08:27:57;12.10;65.80
65179;DHT22;51849;47.476;8.084;2022-09-17T08:30:23;12.10;64.30
65179;DHT22;51849;47.476;8.084;2022-09-17T08:32:48;12.10;65.10
65179;DHT22;51849;47.476;8.084;2022-09-17T08:35:14;12.20;65.30
65179;DHT22;51849;47.476;8.084;2022-09-17T08:37:40;12.10;64.10
65179;DHT22;51849;47.476;8.084;2022-09-17T08:40:14;12.00;65.30
65179;DHT22;51849;47.476;8.084;2022-09-17T08:43:04;12.20;64.10
65179;DHT22;51849;47.476;8.084;2022-09-17T08:45:33;12.40;63.10
65179;DHT22;51849;47.476;8.084;2022-09-17T08:48:02;12.50;61.00
65179;DHT22;51849;47.476;8.084;2022-09-17T08:50:34;12.10;61.70
65179;DHT22;51849;47.476;8.084;2022-09-17T09:01:54;12.20;61.20
65179;DHT22;51849;47.476;8.084;2022-09-17T09:07:14;12.20;62.30
65179;DHT22;51849;47.476;8.084;2022-09-17T09:09:46;12.00;61.30
65179;DHT22;51849;47.476;8.084;2022-09-17T09:12:21;11.90;62.40
65179;DHT22;51849;47.476;8.084;2022-09-17T09:14:53;11.90;63.50
65179;DHT22;51849;47.476;8.084;2022-09-17T09:17:24;11.80;62.60
65179;DHT22;51849;47.476;8.084;2022-09-17T09:20:01;11.70;62.90
65179;DHT22;51849;47.476;8.084;2022-09-17T09:25:27;12.10;62.40
65179;DHT22;51849;47.476;8.084;2022-09-17T09:28:04;12.30;60.80
65179;DHT22;51849;47.476;8.084;2022-09-17T09:33:34;12.10;62.40
65179;DHT22;51849;47.476;8.084;2022-09-17T09:36:09;12.00;62.80
65179;DHT22;51849;47.476;8.084;2022-09-17T09:38:46;12.00;62.50
65179;DHT22;51849;47.476;8.084;2022-09-17T09:44:07;12.40;60.50
65179;DHT22;51849;47.476;8.084;2022-09-17T09:46:48;12.60;59.90
65179;DHT22;51849;47.476;8.084;2022-09-17T09:49:28;12.60;59.70
65179;DHT22;51849;47.476;8.084;2022-09-17T10:01:14;13.20;58.30
65179;DHT22;51849;47.476;8.084;2022-09-17T10:03:47;13.10;57.40
65179;DHT22;51849;47.476;8.084;2022-09-17T10:06:16;13.00;58.50
65179;DHT22;51849;47.476;8.084;2022-09-17T10:11:23;13.10;58.30
65179;DHT22;51849;47.476;8.084;2022-09-17T10:14:31;13.30;58.70
65179;DHT22;51849;47.476;8.084;2022-09-17T10:25:28;12.80;57.50
65179;DHT22;51849;47.476;8.084;2022-09-17T10:27:59;12.60;58.80
65179;DHT22;51849;47.476;8.084;2022-09-17T10:30:31;12.30;60.50
65179;DHT22;51849;47.476;8.084;2022-09-17T10:36:02;12.60;62.10
65179;DHT22;51849;47.476;8.084;2022-09-17T10:38:31;12.90;59.70
65179;DHT22;51849;47.476;8.084;2022-09-17T10:41:33;13.10;59.30
65179;DHT22;51849;47.476;8.084;2022-09-17T10:43:51;13.30;59.20
65179;DHT22;51849;47.476;8.084;2022-09-17T10:46:21;13.30;56.10
65179;DHT22;51849;47.476;8.084;2022-09-17T10:52:09;13.60;55.60
65179;DHT22;51849;47.476;8.084;2022-09-17T11:17:51;14.00;54.00
65179;DHT22;51849;47.476;8.084;2022-09-17T11:25:59;14.00;53.30
65179;DHT22;51849;47.476;8.084;2022-09-17T11:31:36;13.70;52.30
65179;DHT22;51849;47.476;8.084;2022-09-17T11:37:11;13.30;63.80
65179;DHT22;51849;47.476;8.084;2022-09-17T11:42:15;12.60;70.40
65179;DHT22;51849;47.476;8.084;2022-09-17T11:47:29;12.40;70.10
65179;DHT22;51849;47.476;8.084;2022-09-17T11:50:03;12.40;69.50
65179;DHT22;51849;47.476;8.084;2022-09-17T11:52:43;12.40;68.70
65179;DHT22;51849;47.476;8.084;2022-09-17T11:55:18;12.50;69.40
65179;DHT22;51849;47.476;8.084;2022-09-17T11:57:49;12.70;68.70
65179;DHT22;51849;47.476;8.084;2022-09-17T12:00:18;12.90;69.10
65179;DHT22;51849;47.476;8.084;2022-09-17T12:05:24;13.30;66.60
65179;DHT22;51849;47.476;8.084;2022-09-17T12:11:37;13.50;67.80
65179;DHT22;51849;47.476;8.084;2022-09-17T12:14:23;13.50;67.50
65179;DHT22;51849;47.476;8.084;2022-09-17T12:16:56;13.40;69.50
65179;DHT22;51849;47.476;8.084;2022-09-17T12:19:26;13.10;69.70
65179;DHT22;51849;47.476;8.084;2022-09-17T12:21:58;13.00;71.30
65179;DHT22;51849;47.476;8.084;2022-09-17T12:24:27;12.90;70.00
65179;DHT22;51849;47.476;8.084;2022-09-17T12:26:56;12.90;71.90
65179;DHT22;51849;47.476;8.084;2022-09-17T12:35:04;13.10;72.30
65179;DHT22;51849;47.476;8.084;2022-09-17T12:51:26;12.50;70.10
65179;DHT22;51849;47.476;8.084;2022-09-17T12:54:24;12.20;73.90
65179;DHT22;51849;47.476;8.084;2022-09-17T12:59:49;12.40;73.40
65179;DHT22;51849;47.476;8.084;2022-09-17T13:02:35;12.40;73.10
65179;DHT22;51849;47.476;8.084;2022-09-17T13:07:50;12.30;74.00
65179;DHT22;51849;47.476;8.084;2022-09-17T13:16:18;12.10;74.20
65179;DHT22;51849;47.476;8.084;2022-09-17T13:18:53;12.10;73.10
65179;DHT22;51849;47.476;8.084;2022-09-17T13:21:41;12.10;73.80
65179;DHT22;51849;47.476;8.084;2022-09-17T13:24:19;12.10;73.80
65179;DHT22;51849;47.476;8.084;2022-09-17T13:26:51;12.20;73.70
65179;DHT22;51849;47.476;8.084;2022-09-17T13:34:57;12.20;73.40
65179;DHT22;51849;47.476;8.084;2022-09-17T13:42:47;12.00;73.70
65179;DHT22;51849;47.476;8.084;2022-09-17T13:45:21;11.90;73.60
65179;DHT22;51849;47.476;8.084;2022-09-17T13:47:49;11.60;73.00
65179;DHT22;51849;47.476;8.084;2022-09-17T13:50:27;11.70;75.20
65179;DHT22;51849;47.476;8.084;2022-09-17T13:52:53;11.90;75.10
65179;DHT22;51849;47.476;8.084;2022-09-17T13:55:30;12.20;73.20
65179;DHT22;51849;47.476;8.084;2022-09-17T13:58:02;12.50;71.40
65179;DHT22;51849;47.476;8.084;2022-09-17T14:13:53;13.70;70.20
65179;DHT22;51849;47.476;8.084;2022-09-17T14:16:47;13.70;69.70
65179;DHT22;51849;47.476;8.084;2022-09-17T14:21:41;13.50;70.50
65179;DHT22;51849;47.476;8.084;2022-09-17T14:29:39;13.60;68.00
65179;DHT22;51849;47.476;8.084;2022-09-17T14:32:12;13.80;67.10
65179;DHT22;51849;47.476;8.084;2022-09-17T14:34:47;13.90;63.10
65179;DHT22;51849;47.476;8.084;2022-09-17T14:37:15;13.90;64.10
65179;DHT22;51849;47.476;8.084;2022-09-17T14:39:45;13.90;59.50
65179;DHT22;51849;47.476;8.084;2022-09-17T14:42:15;13.80;61.30
65179;DHT22;51849;47.476;8.084;2022-09-17T14:45:21;13.90;59.70
65179;DHT22;51849;47.476;8.084;2022-09-17T14:53:45;14.30;59.70
65179;DHT22;51849;47.476;8.084;2022-09-17T14:56:12;14.30;58.90
65179;DHT22;51849;47.476;8.084;2022-09-17T14:58:50;14.30;57.10
65179;DHT22;51849;47.476;8.084;2022-09-17T15:01:21;14.20;56.00
65179;DHT22;51849;47.476;8.084;2022-09-17T15:03:49;14.20;54.80
65179;DHT22;51849;47.476;8.084;2022-09-17T15:06:21;14.20;57.00
65179;DHT22;51849;47.476;8.084;2022-09-17T15:08:48;14.30;57.20
65179;DHT22;51849;47.476;8.084;2022-09-17T15:11:13;14.30;55.10
65179;DHT22;51849;47.476;8.084;2022-09-17T15:13:40;14.20;55.00
65179;DHT22;51849;47.476;8.084;2022-09-17T15:16:18;14.00;55.70
65179;DHT22;51849;47.476;8.084;2022-09-17T15:21:25;13.80;56.50
65179;DHT22;51849;47.476;8.084;2022-09-17T15:23:53;13.80;55.50
65179;DHT22;51849;47.476;8.084;2022-09-17T15:26:29;13.60;56.40
65179;DHT22;51849;47.476;8.084;2022-09-17T15:29:02;13.40;55.70
65179;DHT22;51849;47.476;8.084;2022-09-17T15:31:30;13.30;56.80
65179;DHT22;51849;47.476;8.084;2022-09-17T15:34:00;13.20;57.30
65179;DHT22;51849;47.476;8.084;2022-09-17T15:36:26;13.20;57.50
65179;DHT22;51849;47.476;8.084;2022-09-17T15:38:54;13.20;57.50
65179;DHT22;51849;47.476;8.084;2022-09-17T15:41:23;13.30;57.50
65179;DHT22;51849;47.476;8.084;2022-09-17T15:43:53;13.30;57.00
65179;DHT22;51849;47.476;8.084;2022-09-17T15:46:29;13.30;57.20
65179;DHT22;51849;47.476;8.084;2022-09-17T15:48:59;13.30;56.20
65179;DHT22;51849;47.476;8.084;2022-09-17T15:51:33;13.40;57.30
65179;DHT22;51849;47.476;8.084;2022-09-17T15:54:04;13.40;57.50
65179;DHT22;51849;47.476;8.084;2022-09-17T15:56:35;13.40;55.50
65179;DHT22;51849;47.476;8.084;2022-09-17T15:59:04;13.20;56.90
65179;DHT22;51849;47.476;8.084;2022-09-17T16:07:25;13.10;55.60
65179;DHT22;51849;47.476;8.084;2022-09-17T16:12:04;13.00;56.80
65179;DHT22;51849;47.476;8.084;2022-09-17T16:14:30;12.90;57.40
65179;DHT22;51849;47.476;8.084;2022-09-17T16:16:56;12.90;56.70
65179;DHT22;51849;47.476;8.084;2022-09-17T16:19:32;12.80;57.20
65179;DHT22;51849;47.476;8.084;2022-09-17T16:21:58;12.70;56.70
65179;DHT22;51849;47.476;8.084;2022-09-17T16:24:24;12.70;56.30
65179;DHT22;51849;47.476;8.084;2022-09-17T16:26:50;12.60;57.00
65179;DHT22;51849;47.476;8.084;2022-09-17T16:29:15;12.70;56.30
65179;DHT22;51849;47.476;8.084;2022-09-17T16:31:47;12.70;57.00
65179;DHT22;51849;47.476;8.084;2022-09-17T16:34:16;12.70;57.80
65179;DHT22;51849;47.476;8.084;2022-09-17T16:36:42;12.70;57.70
65179;DHT22;51849;47.476;8.084;2022-09-17T16:39:08;12.70;55.80
65179;DHT22;51849;47.476;8.084;2022-09-17T16:41:34;12.50;57.10
65179;DHT22;51849;47.476;8.084;2022-09-17T16:44:00;12.40;58.00
65179;DHT22;51849;47.476;8.084;2022-09-17T16:46:25;12.40;58.00
65179;DHT22;51849;47.476;8.084;2022-09-17T16:48:54;12.40;59.10
65179;DHT22;51849;47.476;8.084;2022-09-17T16:51:21;12.40;58.40
65179;DHT22;51849;47.476;8.084;2022-09-17T16:53:47;12.40;58.90
65179;DHT22;51849;47.476;8.084;2022-09-17T16:56:14;12.40;59.30
65179;DHT22;51849;47.476;8.084;2022-09-17T16:58:41;12.30;59.50
65179;DHT22;51849;47.476;8.084;2022-09-17T17:01:11;12.40;59.50
65179;DHT22;51849;47.476;8.084;2022-09-17T17:03:39;12.30;59.30
65179;DHT22;51849;47.476;8.084;2022-09-17T17:06:05;12.30;59.30
65179;DHT22;51849;47.476;8.084;2022-09-17T17:08:31;12.30;58.20
65179;DHT22;51849;47.476;8.084;2022-09-17T17:11:01;12.20;58.80
65179;DHT22;51849;47.476;8.084;2022-09-17T17:13:28;12.10;59.00
65179;DHT22;51849;47.476;8.084;2022-09-17T17:15:53;12.10;59.30
65179;DHT22;51849;47.476;8.084;2022-09-17T17:18:19;12.10;59.20
65179;DHT22;51849;47.476;8.084;2022-09-17T17:20:48;12.10;59.40
65179;DHT22;51849;47.476;8.084;2022-09-17T17:23:14;12.10;59.20
65179;DHT22;51849;47.476;8.084;2022-09-17T17:25:40;12.10;59.60
65179;DHT22;51849;47.476;8.084;2022-09-17T17:28:09;12.00;60.40
65179;DHT22;51849;47.476;8.084;2022-09-17T17:30:36;12.00;60.70
65179;DHT22;51849;47.476;8.084;2022-09-17T17:33:02;11.90;60.70
65179;DHT22;51849;47.476;8.084;2022-09-17T17:35:30;11.90;60.30
65179;DHT22;51849;47.476;8.084;2022-09-17T17:37:56;11.70;60.20
65179;DHT22;51849;47.476;8.084;2022-09-17T17:40:23;11.70;61.10
65179;DHT22;51849;47.476;8.084;2022-09-17T17:42:51;11.60;60.90
65179;DHT22;51849;47.476;8.084;2022-09-17T17:45:17;11.50;61.10
65179;DHT22;51849;47.476;8.084;2022-09-17T17:47:43;11.40;61.40
65179;DHT22;51849;47.476;8.084;2022-09-17T17:50:11;11.40;61.50
65179;DHT22;51849;47.476;8.084;2022-09-17T17:52:38;11.40;61.60
65179;DHT22;51849;47.476;8.084;2022-09-17T17:55:09;11.30;61.80
65179;DHT22;51849;47.476;8.084;2022-09-17T17:57:34;11.30;62.10
65179;DHT22;51849;47.476;8.084;2022-09-17T18:00:01;11.30;61.70
65179;DHT22;51849;47.476;8.084;2022-09-17T18:02:31;11.30;62.70
65179;DHT22;51849;47.476;8.084;2022-09-17T18:05:01;11.30;62.70
65179;DHT22;51849;47.476;8.084;2022-09-17T18:07:27;11.30;61.50
65179;DHT22;51849;47.476;8.084;2022-09-17T18:09:53;11.30;61.20
65179;DHT22;51849;47.476;8.084;2022-09-17T18:12:19;11.30;61.80
65179;DHT22;51849;47.476;8.084;2022-09-17T18:14:45;11.30;62.20
65179;DHT22;51849;47.476;8.084;2022-09-17T18:17:10;11.30;61.80
65179;DHT22;51849;47.476;8.084;2022-09-17T18:19:36;11.30;62.20
65179;DHT22;51849;47.476;8.084;2022-09-17T18:22:02;11.30;62.70
65179;DHT22;51849;47.476;8.084;2022-09-17T18:24:31;11.20;62.40
65179;DHT22;51849;47.476;8.084;2022-09-17T18:26:57;11.20;62.40
65179;DHT22;51849;47.476;8.084;2022-09-17T18:29:24;11.20;62.40
65179;DHT22;51849;47.476;8.084;2022-09-17T18:31:52;11.20;62.80
65179;DHT22;51849;47.476;8.084;2022-09-17T18:34:20;11.10;63.40
65179;DHT22;51849;47.476;8.084;2022-09-17T18:36:46;11.10;63.30
65179;DHT22;51849;47.476;8.084;2022-09-17T18:39:12;11.10;63.60
65179;DHT22;51849;47.476;8.084;2022-09-17T18:41:48;11.10;63.60
65179;DHT22;51849;47.476;8.084;2022-09-17T18:44:15;11.00;64.00
65179;DHT22;51849;47.476;8.084;2022-09-17T18:46:45;11.00;64.20
65179;DHT22;51849;47.476;8.084;2022-09-17T18:49:14;11.00;64.90
65179;DHT22;51849;47.476;8.084;2022-09-17T18:51:40;10.90;66.50
65179;DHT22;51849;47.476;8.084;2022-09-17T18:54:07;10.90;66.50
65179;DHT22;51849;47.476;8.084;2022-09-17T18:56:35;10.90;67.40
65179;DHT22;51849;47.476;8.084;2022-09-17T18:59:03;10.80;67.70
65179;DHT22;51849;47.476;8.084;2022-09-17T19:01:29;10.70;67.90
65179;DHT22;51849;47.476;8.084;2022-09-17T19:03:57;10.80;67.70
65179;DHT22;51849;47.476;8.084;2022-09-17T19:06:26;10.80;67.80
65179;DHT22;51849;47.476;8.084;2022-09-17T19:08:52;10.70;67.40
65179;DHT22;51849;47.476;8.084;2022-09-17T19:11:19;10.70;67.90
65179;DHT22;51849;47.476;8.084;2022-09-17T19:13:46;10.60;67.90
65179;DHT22;51849;47.476;8.084;2022-09-17T19:16:17;10.60;67.90
65179;DHT22;51849;47.476;8.084;2022-09-17T19:18:43;10.50;68.00
65179;DHT22;51849;47.476;8.084;2022-09-17T19:21:11;10.50;68.30
65179;DHT22;51849;47.476;8.084;2022-09-17T19:23:43;10.50;68.70
65179;DHT22;51849;47.476;8.084;2022-09-17T19:26:17;10.50;68.60